sensor_id;sensor_type;location;lat;lon;timestamp;temperature;humidity
1137;DHT22;557;48.466;7.950;2022-12-07T00:01:19;4.70;99.90
1137;DHT22;557;48.466;7.950;2022-12-07T00:04:06;4.60;99.90
1137;DHT22;557;48.466;7.950;2022-12-07T00:06:54;4.70;99.90
1137;DHT22;557;48.466;7.950;2022-12-07T00:09:39;4.70;99.90
1137;DHT22;557;48.466;7.950;2022-12-07T00:12:25;4.60;99.90
1137;DHT22;557;48.466;7.950;2022-12-07T00:15:11;4.50;99.90
1137;DHT22;557;48.466;7.950;2022-12-07T00:17:57;4.50;99.90
1137;DHT22;557;48.466;7.950;2022-12-07T00:20:42;4.50;99.90
1137;DHT22;557;48.466;7.950;2022-12-07T00:23:29;4.40;99.90
1137;DHT22;557;48.466;7.950;2022-12-07T00:26:16;4.40;99.90
1137;DHT22;557;48.466;7.950;2022-12-07T00:29:05;4.30;99.90
1137;DHT22;557;48.466;7.950;2022-12-07T00:31:50;4.30;99.90
1137;DHT22;557;48.466;7.950;2022-12-07T00:34:36;4.30;99.90
1137;DHT22;557;48.466;7.950;2022-12-07T00:37:22;4.20;99.90
1137;DHT22;557;48.466;7.950;2022-12-07T00:40:10;4.20;99.90
1137;DHT22;557;48.466;7.950;2022-12-07T00:42:56;4.10;99.90
1137;DHT22;557;48.466;7.950;2022-12-07T00:45:41;4.20;99.90
1137;DHT22;557;48.466;7.950;2022-12-07T00:48:27;4.20;99.90
1137;DHT22;557;48.466;7.950;2022-12-07T00:51:13;4.30;99.90
1137;DHT22;557;48.466;7.950;2022-12-07T00:53:59;4.30;99.90
1137;DHT22;557;48.466;7.950;2022-12-07T00:56:46;4.30;99.90
1137;DHT22;557;48.466;7.950;2022-12-07T00:59:32;4.30;99.90
1137;DHT22;557;48.466;7.950;2022-12-07T01:02:18;4.30;99.90
1137;DHT22;557;48.466;7.950;2022-12-07T01:05:04;4.40;99.90
1137;DHT22;557;48.466;7.950;2022-12-07T01:07:49;4.40;99.90
1137;DHT22;557;48.466;7.950;2022-12-07T01:10:35;4.40;99.90
1137;DHT22;557;48.466;7.950;2022-12-07T01:13:22;4.40;99.90
1137;DHT22;557;48.466;7.950;2022-12-07T01:16:10;4.40;99.90
1137;DHT22;557;48.466;7.950;2022-12-07T01:18:56;4.50;99.90
1137;DHT22;557;48.466;7.950;2022-12-07T01:21:42;4.50;99.90
1137;DHT22;557;48.466;7.950;2022-12-07T01:24:28;4.50;99.90
1137;DHT22;557;48.466;7.950;2022-12-07T01:27:14;4.40;99.90
1137;DHT22;557;48.466;7.950;2022-12-07T01:30:01;4.40;99.90
1137;DHT22;557;48.466;7.950;2022-12-07T01:32:48;4.40;99.90
1137;DHT22;557;48.466;7.950;2022-12-07T01:35:34;4.40;99.90
1137;DHT22;557;48.466;7.950;2022-12-07T01:38:19;4.30;99.90
1137;DHT22;557;48.466;7.950;2022-12-07T01:41:05;4.30;99.90
1137;DHT22;557;48.466;7.950;2022-12-07T01:44:11;4.30;99.90
1137;DHT22;557;48.466;7.950;2022-12-07T01:46:59;4.20;99.90
1137;DHT22;557;48.466;7.950;2022-12-07T01:49:47;4.20;99.90
1137;DHT22;557;48.466;7.950;2022-12-07T01:52:34;4.20;99.90
1137;DHT22;557;48.466;7.950;2022-12-07T01:55:22;4.20;99.90
1137;DHT22;557;48.466;7.950;2022-12-07T01:58:08;4.20;99.90
1137;DHT22;557;48.466;7.950;2022-12-07T02:00:54;4.20;99.90
1137;DHT22;557;48.466;7.950;2022-12-07T02:03:42;4.20;99.90
1137;DHT22;557;48.466;7.950;2022-12-07T02:06:28;4.20;99.90
1137;DHT22;557;48.466;7.950;2022-12-07T02:09:15;4.20;99.90
1137;DHT22;557;48.466;7.950;2022-12-07T02:12:00;4.20;99.90
1137;DHT22;557;48.466;7.950;2022-12-07T02:14:46;4.20;99.90
1137;DHT22;557;48.466;7.950;2022-12-07T02:17:39;4.20;99.90
1137;DHT22;557;48.466;7.950;2022-12-07T02:20:32;4.10;99.90
1137;DHT22;557;48.466;7.950;2022-12-07T02:23:38;4.10;99.90
1137;DHT22;557;48.466;7.950;2022-12-07T02:27:00;4.20;99.90
1137;DHT22;557;48.466;7.950;2022-12-07T02:29:57;4.20;99.90
1137;DHT22;557;48.466;7.950;2022-12-07T02:32:49;4.10;99.90
1137;DHT22;557;48.466;7.950;2022-12-07T02:35:40;4.10;99.90
1137;DHT22;557;48.466;7.950;2022-12-07T02:38:33;4.10;99.90
1137;DHT22;557;48.466;7.950;2022-12-07T02:41:23;4.10;99.90
1137;DHT22;557;48.466;7.950;2022-12-07T02:44:13;4.00;99.90
1137;DHT22;557;48.466;7.950;2022-12-07T02:47:03;4.00;99.90
1137;DHT22;557;48.466;7.950;2022-12-07T02:49:50;4.00;99.90
1137;DHT22;557;48.466;7.950;2022-12-07T02:52:36;4.00;99.90
1137;DHT22;557;48.466;7.950;2022-12-07T02:55:25;3.90;99.90
1137;DHT22;557;48.466;7.950;2022-12-07T02:58:23;3.90;99.90
1137;DHT22;557;48.466;7.950;2022-12-07T03:01:19;3.90;99.90
1137;DHT22;557;48.466;7.950;2022-12-07T03:04:20;3.80;99.90
1137;DHT22;557;48.466;7.950;2022-12-07T03:07:18;3.80;99.90
1137;DHT22;557;48.466;7.950;2022-12-07T03:10:10;3.90;99.90
1137;DHT22;557;48.466;7.950;2022-12-07T03:13:02;4.10;99.90
1137;DHT22;557;48.466;7.950;2022-12-07T03:15:55;4.20;99.90
1137;DHT22;557;48.466;7.950;2022-12-07T03:18:47;4.20;99.90
1137;DHT22;557;48.466;7.950;2022-12-07T03:21:40;4.20;99.90
1137;DHT22;557;48.466;7.950;2022-12-07T03:24:30;4.20;99.90
1137;DHT22;557;48.466;7.950;2022-12-07T03:27:20;4.20;99.90
1137;DHT22;557;48.466;7.950;2022-12-07T03:30:08;4.20;99.90
1137;DHT22;557;48.466;7.950;2022-12-07T03:32:58;4.20;99.90
1137;DHT22;557;48.466;7.950;2022-12-07T03:35:48;4.00;99.90
1137;DHT22;557;48.466;7.950;2022-12-07T03:38:42;3.90;99.90
1137;DHT22;557;48.466;7.950;2022-12-07T03:41:33;3.80;99.90
1137;DHT22;557;48.466;7.950;2022-12-07T03:44:22;3.90;99.90
1137;DHT22;557;48.466;7.950;2022-12-07T03:47:12;3.80;99.90
1137;DHT22;557;48.466;7.950;2022-12-07T03:50:04;3.60;99.90
1137;DHT22;557;48.466;7.950;2022-12-07T03:52:54;3.60;99.90
1137;DHT22;557;48.466;7.950;2022-12-07T03:55:44;3.50;99.90
1137;DHT22;557;48.466;7.950;2022-12-07T03:58:32;3.50;99.90
1137;DHT22;557;48.466;7.950;2022-12-07T04:01:19;3.50;99.90
1137;DHT22;557;48.466;7.950;2022-12-07T04:04:04;3.20;99.90
1137;DHT22;557;48.466;7.950;2022-12-07T04:06:50;3.10;99.90
1137;DHT22;557;48.466;7.950;2022-12-07T04:09:36;3.00;99.90
1137;DHT22;557;48.466;7.950;2022-12-07T04:12:23;3.10;99.90
1137;DHT22;557;48.466;7.950;2022-12-07T04:15:09;3.10;99.90
1137;DHT22;557;48.466;7.950;2022-12-07T04:17:55;3.10;99.90
1137;DHT22;557;48.466;7.950;2022-12-07T04:20:40;3.10;99.90
1137;DHT22;557;48.466;7.950;2022-12-07T04:23:26;3.00;99.90
1137;DHT22;557;48.466;7.950;2022-12-07T04:26:12;2.80;99.90
1137;DHT22;557;48.466;7.950;2022-12-07T04:28:59;2.80;99.90
1137;DHT22;557;48.466;7.950;2022-12-07T04:31:45;2.80;99.90
1137;DHT22;557;48.466;7.950;2022-12-07T04:34:31;2.80;99.90
1137;DHT22;557;48.466;7.950;2022-12-07T04:37:17;2.80;99.90
1137;DHT22;557;48.466;7.950;2022-12-07T04:40:03;2.80;99.90
1137;DHT22;557;48.466;7.950;2022-12-07T04:42:49;2.80;99.90
1137;DHT22;557;48.466;7.950;2022-12-07T04:45:36;2.80;99.90
1137;DHT22;557;48.466;7.950;2022-12-07T04:48:21;2.80;99.90
1137;DHT22;557;48.466;7.950;2022-12-07T04:51:07;2.90;99.90
1137;DHT22;557;48.466;7.950;2022-12-07T04:53:52;2.90;99.90
1137;DHT22;557;48.466;7.950;2022-12-07T04:56:38;3.00;99.90
1137;DHT22;557;48.466;7.950;2022-12-07T04:59:24;2.90;99.90
1137;DHT22;557;48.466;7.950;2022-12-07T05:02:11;2.90;99.90
1137;DHT22;557;48.466;7.950;2022-12-07T05:04:57;3.00;99.90
1137;DHT22;557;48.466;7.950;2022-12-07T05:07:42;2.90;99.90
1137;DHT22;557;48.466;7.950;2022-12-07T05:10:28;2.90;99.90
1137;DHT22;557;48.466;7.950;2022-12-07T05:13:13;3.00;99.90
1137;DHT22;557;48.466;7.950;2022-12-07T05:15:59;2.80;99.90
1137;DHT22;557;48.466;7.950;2022-12-07T05:18:46;2.70;99.90
1137;DHT22;557;48.466;7.950;2022-12-07T05:21:31;2.70;99.90
1137;DHT22;557;48.466;7.950;2022-12-07T05:24:18;2.80;99.90
1137;DHT22;557;48.466;7.950;2022-12-07T05:27:03;2.70;99.90
1137;DHT22;557;48.466;7.950;2022-12-07T05:29:50;2.60;99.90
1137;DHT22;557;48.466;7.950;2022-12-07T05:32:36;2.50;99.90
1137;DHT22;557;48.466;7.950;2022-12-07T05:35:23;2.50;99.90
1137;DHT22;557;48.466;7.950;2022-12-07T05:38:08;2.50;99.90
1137;DHT22;557;48.466;7.950;2022-12-07T05:40:54;2.50;99.90
1137;DHT22;557;48.466;7.950;2022-12-07T05:43:39;2.40;99.90
1137;DHT22;557;48.466;7.950;2022-12-07T05:46:25;2.50;99.90
1137;DHT22;557;48.466;7.950;2022-12-07T05:49:11;2.50;99.90
1137;DHT22;557;48.466;7.950;2022-12-07T05:51:58;2.50;99.90
1137;DHT22;557;48.466;7.950;2022-12-07T05:54:43;2.40;99.90
1137;DHT22;557;48.466;7.950;2022-12-07T05:57:29;2.20;99.90
1137;DHT22;557;48.466;7.950;2022-12-07T06:00:15;2.10;99.90
1137;DHT22;557;48.466;7.950;2022-12-07T06:02:59;2.20;99.90
1137;DHT22;557;48.466;7.950;2022-12-07T06:05:45;2.30;99.90
1137;DHT22;557;48.466;7.950;2022-12-07T06:08:31;2.20;99.90
1137;DHT22;557;48.466;7.950;2022-12-07T06:11:17;2.10;99.90
1137;DHT22;557;48.466;7.950;2022-12-07T06:14:20;2.10;99.90
1137;DHT22;557;48.466;7.950;2022-12-07T06:17:06;2.20;99.90
1137;DHT22;557;48.466;7.950;2022-12-07T06:19:52;2.20;99.90
1137;DHT22;557;48.466;7.950;2022-12-07T06:22:37;2.10;99.90
1137;DHT22;557;48.466;7.950;2022-12-07T06:25:24;2.00;99.90
1137;DHT22;557;48.466;7.950;2022-12-07T06:28:09;2.10;99.90
1137;DHT22;557;48.466;7.950;2022-12-07T06:30:57;2.10;99.90
1137;DHT22;557;48.466;7.950;2022-12-07T06:33:43;2.10;99.90
1137;DHT22;557;48.466;7.950;2022-12-07T06:36:29;2.00;99.90
1137;DHT22;557;48.466;7.950;2022-12-07T06:39:15;2.10;99.90
1137;DHT22;557;48.466;7.950;2022-12-07T06:42:02;2.10;99.90
1137;DHT22;557;48.466;7.950;2022-12-07T06:44:48;2.00;99.90
1137;DHT22;557;48.466;7.950;2022-12-07T06:47:34;2.10;99.90
1137;DHT22;557;48.466;7.950;2022-12-07T06:50:21;2.10;99.90
1137;DHT22;557;48.466;7.950;2022-12-07T06:53:08;2.00;99.90
1137;DHT22;557;48.466;7.950;2022-12-07T06:55:54;1.90;99.90
1137;DHT22;557;48.466;7.950;2022-12-07T06:58:41;1.80;99.90
1137;DHT22;557;48.466;7.950;2022-12-07T07:01:27;1.80;99.90
1137;DHT22;557;48.466;7.950;2022-12-07T07:04:13;1.80;99.90
1137;DHT22;557;48.466;7.950;2022-12-07T07:06:58;1.80;99.90
1137;DHT22;557;48.466;7.950;2022-12-07T07:09:44;1.80;99.90
1137;DHT22;557;48.466;7.950;2022-12-07T07:12:30;1.80;99.90
1137;DHT22;557;48.466;7.950;2022-12-07T07:15:17;1.90;99.90
1137;DHT22;557;48.466;7.950;2022-12-07T07:18:03;1.90;99.90
1137;DHT22;557;48.466;7.950;2022-12-07T07:20:50;2.00;99.90
1137;DHT22;557;48.466;7.950;2022-12-07T07:23:35;2.10;99.90
1137;DHT22;557;48.466;7.950;2022-12-07T07:26:21;2.00;99.90
1137;DHT22;557;48.466;7.950;2022-12-07T07:29:07;2.00;99.90
1137;DHT22;557;48.466;7.950;2022-12-07T07:31:53;2.00;99.90
1137;DHT22;557;48.466;7.950;2022-12-07T07:34:39;2.10;99.90
1137;DHT22;557;48.466;7.950;2022-12-07T07:37:25;2.20;99.90
1137;DHT22;557;48.466;7.950;2022-12-07T07:40:12;2.20;99.90
1137;DHT22;557;48.466;7.950;2022-12-07T07:42:58;2.20;99.90
1137;DHT22;557;48.466;7.950;2022-12-07T07:45:44;2.20;99.90
1137;DHT22;557;48.466;7.950;2022-12-07T07:48:31;2.20;99.90
1137;DHT22;557;48.466;7.950;2022-12-07T07:51:16;2.20;99.90
1137;DHT22;557;48.466;7.950;2022-12-07T07:54:03;2.30;99.90
1137;DHT22;557;48.466;7.950;2022-12-07T07:56:49;2.40;99.90
1137;DHT22;557;48.466;7.950;2022-12-07T07:59:35;2.40;99.90
1137;DHT22;557;48.466;7.950;2022-12-07T08:02:21;2.40;99.90
1137;DHT22;557;48.466;7.950;2022-12-07T08:05:09;2.50;99.90
1137;DHT22;557;48.466;7.950;2022-12-07T08:07:55;2.50;99.90
1137;DHT22;557;48.466;7.950;2022-12-07T08:10:42;2.60;99.90
1137;DHT22;557;48.466;7.950;2022-12-07T08:13:28;2.70;99.90
1137;DHT22;557;48.466;7.950;2022-12-07T08:16:13;2.80;99.90
1137;DHT22;557;48.466;7.950;2022-12-07T08:18:59;2.70;99.90
1137;DHT22;557;48.466;7.950;2022-12-07T08:21:46;2.80;99.90
1137;DHT22;557;48.466;7.950;2022-12-07T08:24:33;2.80;99.90
1137;DHT22;557;48.466;7.950;2022-12-07T08:27:19;2.90;99.90
1137;DHT22;557;48.466;7.950;2022-12-07T08:30:05;2.90;99.90
1137;DHT22;557;48.466;7.950;2022-12-07T08:32:51;2.90;99.90
1137;DHT22;557;48.466;7.950;2022-12-07T08:35:36;2.90;99.90
1137;DHT22;557;48.466;7.950;2022-12-07T08:38:23;3.00;99.90
1137;DHT22;557;48.466;7.950;2022-12-07T08:41:09;3.00;99.90
1137;DHT22;557;48.466;7.950;2022-12-07T08:43:55;3.10;99.90
1137;DHT22;557;48.466;7.950;2022-12-07T08:46:44;3.20;99.90
1137;DHT22;557;48.466;7.950;2022-12-07T08:49:34;3.20;99.90
1137;DHT22;557;48.466;7.950;2022-12-07T08:52:21;3.30;99.90
1137;DHT22;557;48.466;7.950;2022-12-07T08:55:11;3.30;99.90
1137;DHT22;557;48.466;7.950;2022-12-07T08:57:57;3.30;99.90
1137;DHT22;557;48.466;7.950;2022-12-07T09:00:43;3.40;99.90
1137;DHT22;557;48.466;7.950;2022-12-07T09:03:29;3.40;99.90
1137;DHT22;557;48.466;7.950;2022-12-07T09:06:15;3.40;99.90
1137;DHT22;557;48.466;7.950;2022-12-07T09:09:01;3.50;99.90
1137;DHT22;557;48.466;7.950;2022-12-07T09:11:49;3.60;99.90
1137;DHT22;557;48.466;7.950;2022-12-07T09:14:35;3.60;99.90
1137;DHT22;557;48.466;7.950;2022-12-07T09:17:20;3.50;99.90
1137;DHT22;557;48.466;7.950;2022-12-07T09:20:07;3.60;99.90
1137;DHT22;557;48.466;7.950;2022-12-07T09:22:52;3.70;99.90
1137;DHT22;557;48.466;7.950;2022-12-07T09:25:38;3.80;99.90
1137;DHT22;557;48.466;7.950;2022-12-07T09:28:25;3.90;99.90
1137;DHT22;557;48.466;7.950;2022-12-07T09:31:11;3.80;99.90
1137;DHT22;557;48.466;7.950;2022-12-07T09:33:58;3.90;99.40
1137;DHT22;557;48.466;7.950;2022-12-07T09:36:44;3.80;82.70
1137;DHT22;557;48.466;7.950;2022-12-07T09:39:29;3.90;71.80
1137;DHT22;557;48.466;7.950;2022-12-07T09:42:26;3.80;75.70
1137;DHT22;557;48.466;7.950;2022-12-07T09:45:19;3.90;82.70
1137;DHT22;557;48.466;7.950;2022-12-07T09:48:08;4.00;86.40
1137;DHT22;557;48.466;7.950;2022-12-07T09:50:58;4.10;37.00
1137;DHT22;557;48.466;7.950;2022-12-07T09:53:45;4.10;42.60
1137;DHT22;557;48.466;7.950;2022-12-07T09:56:31;4.10;40.60
1137;DHT22;557;48.466;7.950;2022-12-07T09:59:18;4.10;23.20
1137;DHT22;557;48.466;7.950;2022-12-07T10:02:25;4.20;22.10
1137;DHT22;557;48.466;7.950;2022-12-07T10:05:15;4.30;20.20
1137;DHT22;557;48.466;7.950;2022-12-07T10:08:01;4.30;16.10
1137;DHT22;557;48.466;7.950;2022-12-07T10:10:51;4.20;7.50
1137;DHT22;557;48.466;7.950;2022-12-07T10:13:38;4.30;18.30
1137;DHT22;557;48.466;7.950;2022-12-07T10:16:34;4.30;26.40
1137;DHT22;557;48.466;7.950;2022-12-07T10:19:26;4.30;1.00
1137;DHT22;557;48.466;7.950;2022-12-07T10:22:14;4.40;1.00
1137;DHT22;557;48.466;7.950;2022-12-07T10:25:08;4.50;3.70
1137;DHT22;557;48.466;7.950;2022-12-07T10:27:58;4.60;1.00
1137;DHT22;557;48.466;7.950;2022-12-07T10:30:51;4.70;1.00
1137;DHT22;557;48.466;7.950;2022-12-07T10:33:38;4.80;1.00
1137;DHT22;557;48.466;7.950;2022-12-07T10:36:37;4.80;1.00
1137;DHT22;557;48.466;7.950;2022-12-07T10:39:23;4.80;1.00
1137;DHT22;557;48.466;7.950;2022-12-07T10:42:16;4.70;1.00
1137;DHT22;557;48.466;7.950;2022-12-07T10:45:13;4.60;1.00
1137;DHT22;557;48.466;7.950;2022-12-07T10:48:05;4.50;1.00
1137;DHT22;557;48.466;7.950;2022-12-07T10:51:00;4.50;1.00
1137;DHT22;557;48.466;7.950;2022-12-07T10:53:59;4.60;1.00
1137;DHT22;557;48.466;7.950;2022-12-07T10:57:10;4.60;1.00
1137;DHT22;557;48.466;7.950;2022-12-07T11:00:10;4.60;1.00
1137;DHT22;557;48.466;7.950;2022-12-07T11:03:48;4.60;1.00
1137;DHT22;557;48.466;7.950;2022-12-07T11:06:39;4.80;1.00
1137;DHT22;557;48.466;7.950;2022-12-07T11:09:40;5.00;1.00
1137;DHT22;557;48.466;7.950;2022-12-07T11:12:43;4.90;1.00
1137;DHT22;557;48.466;7.950;2022-12-07T11:15:43;4.80;1.00
1137;DHT22;557;48.466;7.950;2022-12-07T11:18:36;4.90;1.00
1137;DHT22;557;48.466;7.950;2022-12-07T11:21:31;4.90;1.00
1137;DHT22;557;48.466;7.950;2022-12-07T11:24:20;5.10;1.00
1137;DHT22;557;48.466;7.950;2022-12-07T11:27:17;5.10;1.00
1137;DHT22;557;48.466;7.950;2022-12-07T11:30:18;5.40;1.00
1137;DHT22;557;48.466;7.950;2022-12-07T11:33:15;5.70;1.00
1137;DHT22;557;48.466;7.950;2022-12-07T11:36:08;5.90;99.90
1137;DHT22;557;48.466;7.950;2022-12-07T11:39:00;6.10;99.90
1137;DHT22;557;48.466;7.950;2022-12-07T11:41:48;6.20;1.00
1137;DHT22;557;48.466;7.950;2022-12-07T11:44:43;6.20;1.00
1137;DHT22;557;48.466;7.950;2022-12-07T11:47:36;6.30;15.70
1137;DHT22;557;48.466;7.950;2022-12-07T11:50:33;6.30;1.00
1137;DHT22;557;48.466;7.950;2022-12-07T11:53:22;6.30;99.90
1137;DHT22;557;48.466;7.950;2022-12-07T11:56:13;6.40;1.00
1137;DHT22;557;48.466;7.950;2022-12-07T11:59:02;6.50;1.00
1137;DHT22;557;48.466;7.950;2022-12-07T12:01:56;6.30;99.90
1137;DHT22;557;48.466;7.950;2022-12-07T12:04:51;6.20;1.00
1137;DHT22;557;48.466;7.950;2022-12-07T12:07:39;6.40;1.00
1137;DHT22;557;48.466;7.950;2022-12-07T12:10:32;6.40;1.00
1137;DHT22;557;48.466;7.950;2022-12-07T12:13:37;6.30;1.00
1137;DHT22;557;48.466;7.950;2022-12-07T12:20:05;6.40;99.90
1137;DHT22;557;48.466;7.950;2022-12-07T12:22:55;6.40;99.90
1137;DHT22;557;48.466;7.950;2022-12-07T12:25:43;6.50;1.00
1137;DHT22;557;48.466;7.950;2022-12-07T12:28:41;6.50;58.10
1137;DHT22;557;48.466;7.950;2022-12-07T12:31:34;6.50;43.90
1137;DHT22;557;48.466;7.950;2022-12-07T12:34:33;6.60;1.00
1137;DHT22;557;48.466;7.950;2022-12-07T12:37:45;6.40;1.00
1137;DHT22;557;48.466;7.950;2022-12-07T12:40:51;6.30;1.00
1137;DHT22;557;48.466;7.950;2022-12-07T12:43:44;6.40;1.00
1137;DHT22;557;48.466;7.950;2022-12-07T12:46:51;6.40;1.00
1137;DHT22;557;48.466;7.950;2022-12-07T12:49:39;6.60;99.90
1137;DHT22;557;48.466;7.950;2022-12-07T12:52:53;6.80;1.00
1137;DHT22;557;48.466;7.950;2022-12-07T12:56:10;6.70;1.00
1137;DHT22;557;48.466;7.950;2022-12-07T12:59:25;6.50;99.90
1137;DHT22;557;48.466;7.950;2022-12-07T13:02:22;6.50;1.00
1137;DHT22;557;48.466;7.950;2022-12-07T13:05:19;6.60;1.00
1137;DHT22;557;48.466;7.950;2022-12-07T13:08:15;6.70;1.00
1137;DHT22;557;48.466;7.950;2022-12-07T13:11:17;6.80;1.00
1137;DHT22;557;48.466;7.950;2022-12-07T13:18:22;7.70;99.90
1137;DHT22;557;48.466;7.950;2022-12-07T13:24:30;8.20;1.00
1137;DHT22;557;48.466;7.950;2022-12-07T13:27:17;7.90;1.00
1137;DHT22;557;48.466;7.950;2022-12-07T13:30:11;7.60;1.00
1137;DHT22;557;48.466;7.950;2022-12-07T13:32:59;7.30;1.00
1137;DHT22;557;48.466;7.950;2022-12-07T13:35:45;7.00;1.00
1137;DHT22;557;48.466;7.950;2022-12-07T13:38:33;6.80;1.00
1137;DHT22;557;48.466;7.950;2022-12-07T13:41:23;6.70;1.00
1137;DHT22;557;48.466;7.950;2022-12-07T13:44:12;6.60;99.90
1137;DHT22;557;48.466;7.950;2022-12-07T13:47:03;6.70;1.00
1137;DHT22;557;48.466;7.950;2022-12-07T13:49:53;6.70;1.00
1137;DHT22;557;48.466;7.950;2022-12-07T13:52:43;6.70;99.90
1137;DHT22;557;48.466;7.950;2022-12-07T13:55:29;6.80;99.90
1137;DHT22;557;48.466;7.950;2022-12-07T13:58:16;6.80;23.00
1137;DHT22;557;48.466;7.950;2022-12-07T14:01:02;6.80;43.20
1137;DHT22;557;48.466;7.950;2022-12-07T14:03:48;6.70;99.90
1137;DHT22;557;48.466;7.950;2022-12-07T14:06:33;6.60;1.00
1137;DHT22;557;48.466;7.950;2022-12-07T14:09:20;6.50;99.90
1137;DHT22;557;48.466;7.950;2022-12-07T14:12:06;6.40;1.00
1137;DHT22;557;48.466;7.950;2022-12-07T14:14:54;6.30;1.00
1137;DHT22;557;48.466;7.950;2022-12-07T14:17:50;6.20;99.90
1137;DHT22;557;48.466;7.950;2022-12-07T14:20:38;6.10;99.90
1137;DHT22;557;48.466;7.950;2022-12-07T14:23:25;6.00;80.90
1137;DHT22;557;48.466;7.950;2022-12-07T14:26:13;6.00;99.90
1137;DHT22;557;48.466;7.950;2022-12-07T14:29:20;6.00;99.90
1137;DHT22;557;48.466;7.950;2022-12-07T14:32:21;5.90;1.00
1137;DHT22;557;48.466;7.950;2022-12-07T14:35:14;6.00;99.90
1137;DHT22;557;48.466;7.950;2022-12-07T14:38:00;5.90;99.90
1137;DHT22;557;48.466;7.950;2022-12-07T14:40:45;5.90;99.90
1137;DHT22;557;48.466;7.950;2022-12-07T14:43:31;5.90;21.50
1137;DHT22;557;48.466;7.950;2022-12-07T14:46:16;5.90;38.60
1137;DHT22;557;48.466;7.950;2022-12-07T14:49:03;5.80;99.90
1137;DHT22;557;48.466;7.950;2022-12-07T14:51:49;5.80;1.00
1137;DHT22;557;48.466;7.950;2022-12-07T14:54:35;5.90;1.00
1137;DHT22;557;48.466;7.950;2022-12-07T14:57:20;6.00;1.00
1137;DHT22;557;48.466;7.950;2022-12-07T15:00:12;5.90;1.00
1137;DHT22;557;48.466;7.950;2022-12-07T15:02:58;5.90;1.00
1137;DHT22;557;48.466;7.950;2022-12-07T15:05:45;5.90;99.90
1137;DHT22;557;48.466;7.950;2022-12-07T15:08:31;5.80;99.90
1137;DHT22;557;48.466;7.950;2022-12-07T15:11:17;5.70;99.90
1137;DHT22;557;48.466;7.950;2022-12-07T15:14:03;5.80;1.00
1137;DHT22;557;48.466;7.950;2022-12-07T15:16:56;5.80;1.00
1137;DHT22;557;48.466;7.950;2022-12-07T15:19:42;5.80;1.00
1137;DHT22;557;48.466;7.950;2022-12-07T15:22:29;5.80;1.00
1137;DHT22;557;48.466;7.950;2022-12-07T15:25:15;5.70;1.00
1137;DHT22;557;48.466;7.950;2022-12-07T15:28:01;5.70;1.00
1137;DHT22;557;48.466;7.950;2022-12-07T15:30:47;5.60;1.00
1137;DHT22;557;48.466;7.950;2022-12-07T15:33:33;5.60;1.00
1137;DHT22;557;48.466;7.950;2022-12-07T15:36:20;5.50;1.00
1137;DHT22;557;48.466;7.950;2022-12-07T15:39:08;5.50;1.00
1137;DHT22;557;48.466;7.950;2022-12-07T15:41:54;5.50;1.00
1137;DHT22;557;48.466;7.950;2022-12-07T15:44:39;5.50;1.00
1137;DHT22;557;48.466;7.950;2022-12-07T15:47:44;5.60;1.00
1137;DHT22;557;48.466;7.950;2022-12-07T15:50:30;5.60;1.00
1137;DHT22;557;48.466;7.950;2022-12-07T15:53:15;5.60;1.00
1137;DHT22;557;48.466;7.950;2022-12-07T15:56:06;5.50;1.00
1137;DHT22;557;48.466;7.950;2022-12-07T15:58:52;5.40;1.00
1137;DHT22;557;48.466;7.950;2022-12-07T16:01:37;5.40;1.00
1137;DHT22;557;48.466;7.950;2022-12-07T16:04:23;5.40;1.00
1137;DHT22;557;48.466;7.950;2022-12-07T16:07:08;5.30;1.00
1137;DHT22;557;48.466;7.950;2022-12-07T16:09:55;5.30;1.90
1137;DHT22;557;48.466;7.950;2022-12-07T16:12:42;5.40;1.00
1137;DHT22;557;48.466;7.950;2022-12-07T16:15:28;5.20;1.00
1137;DHT22;557;48.466;7.950;2022-12-07T16:18:14;5.30;1.20
1137;DHT22;557;48.466;7.950;2022-12-07T16:21:00;5.20;3.60
1137;DHT22;557;48.466;7.950;2022-12-07T16:23:46;5.20;1.00
1137;DHT22;557;48.466;7.950;2022-12-07T16:26:31;5.20;4.80
1137;DHT22;557;48.466;7.950;2022-12-07T16:29:20;5.10;3.00
1137;DHT22;557;48.466;7.950;2022-12-07T16:32:06;5.10;13.90
1137;DHT22;557;48.466;7.950;2022-12-07T16:34:51;5.10;13.40
1137;DHT22;557;48.466;7.950;2022-12-07T16:37:37;5.00;18.40
1137;DHT22;557;48.466;7.950;2022-12-07T16:40:22;5.00;14.90
1137;DHT22;557;48.466;7.950;2022-12-07T16:43:08;5.00;20.00
1137;DHT22;557;48.466;7.950;2022-12-07T16:45:58;5.00;22.00
1137;DHT22;557;48.466;7.950;2022-12-07T16:48:43;5.00;18.00
1137;DHT22;557;48.466;7.950;2022-12-07T16:51:30;4.90;20.50
1137;DHT22;557;48.466;7.950;2022-12-07T16:54:16;4.90;22.80
1137;DHT22;557;48.466;7.950;2022-12-07T16:57:01;4.90;19.60
1137;DHT22;557;48.466;7.950;2022-12-07T16:59:47;4.90;13.00
1137;DHT22;557;48.466;7.950;2022-12-07T17:02:34;4.90;17.00
1137;DHT22;557;48.466;7.950;2022-12-07T17:05:20;4.90;16.40
1137;DHT22;557;48.466;7.950;2022-12-07T17:08:07;4.90;10.30
1137;DHT22;557;48.466;7.950;2022-12-07T17:10:52;4.90;21.70
1137;DHT22;557;48.466;7.950;2022-12-07T17:13:38;4.90;14.30
1137;DHT22;557;48.466;7.950;2022-12-07T17:16:42;4.90;12.20
1137;DHT22;557;48.466;7.950;2022-12-07T17:19:29;4.90;8.00
1137;DHT22;557;48.466;7.950;2022-12-07T17:22:14;4.90;12.20
1137;DHT22;557;48.466;7.950;2022-12-07T17:25:00;4.90;13.00
1137;DHT22;557;48.466;7.950;2022-12-07T17:27:46;4.90;16.20
1137;DHT22;557;48.466;7.950;2022-12-07T17:30:31;4.90;18.60
1137;DHT22;557;48.466;7.950;2022-12-07T17:33:17;4.80;22.40
1137;DHT22;557;48.466;7.950;2022-12-07T17:36:11;4.80;17.00
1137;DHT22;557;48.466;7.950;2022-12-07T17:38:57;4.90;19.70
1137;DHT22;557;48.466;7.950;2022-12-07T17:41:43;4.80;7.00
1137;DHT22;557;48.466;7.950;2022-12-07T17:44:47;4.80;12.60
1137;DHT22;557;48.466;7.950;2022-12-07T17:47:33;4.80;23.00
1137;DHT22;557;48.466;7.950;2022-12-07T17:50:19;4.80;29.10
1137;DHT22;557;48.466;7.950;2022-12-07T17:53:27;4.80;29.80
1137;DHT22;557;48.466;7.950;2022-12-07T17:56:13;4.80;38.20
1137;DHT22;557;48.466;7.950;2022-12-07T17:58:58;4.80;26.80
1137;DHT22;557;48.466;7.950;2022-12-07T18:01:45;4.80;21.80
1137;DHT22;557;48.466;7.950;2022-12-07T18:04:31;4.80;30.00
1137;DHT22;557;48.466;7.950;2022-12-07T18:07:17;4.80;33.60
1137;DHT22;557;48.466;7.950;2022-12-07T18:10:16;4.80;37.70
1137;DHT22;557;48.466;7.950;2022-12-07T18:13:01;4.80;50.10
1137;DHT22;557;48.466;7.950;2022-12-07T18:16:06;4.80;57.60
1137;DHT22;557;48.466;7.950;2022-12-07T18:18:53;4.80;81.10
1137;DHT22;557;48.466;7.950;2022-12-07T18:21:40;4.80;92.60
1137;DHT22;557;48.466;7.950;2022-12-07T18:24:26;4.90;90.10
1137;DHT22;557;48.466;7.950;2022-12-07T18:27:13;4.80;57.30
1137;DHT22;557;48.466;7.950;2022-12-07T18:29:59;4.70;83.80
1137;DHT22;557;48.466;7.950;2022-12-07T18:32:44;4.60;99.90
1137;DHT22;557;48.466;7.950;2022-12-07T18:35:30;4.50;99.90
1137;DHT22;557;48.466;7.950;2022-12-07T18:38:17;4.50;99.90
1137;DHT22;557;48.466;7.950;2022-12-07T18:41:06;4.40;99.90
1137;DHT22;557;48.466;7.950;2022-12-07T18:43:59;4.40;99.90
1137;DHT22;557;48.466;7.950;2022-12-07T18:46:48;4.40;99.90
1137;DHT22;557;48.466;7.950;2022-12-07T18:49:34;4.40;99.90
1137;DHT22;557;48.466;7.950;2022-12-07T18:52:19;4.30;99.90
1137;DHT22;557;48.466;7.950;2022-12-07T18:55:06;4.30;99.90
1137;DHT22;557;48.466;7.950;2022-12-07T18:57:52;4.20;99.90
1137;DHT22;557;48.466;7.950;2022-12-07T19:00:39;4.30;99.90
1137;DHT22;557;48.466;7.950;2022-12-07T19:03:26;4.30;99.90
1137;DHT22;557;48.466;7.950;2022-12-07T19:06:12;4.30;99.90
1137;DHT22;557;48.466;7.950;2022-12-07T19:08:57;4.30;99.90
1137;DHT22;557;48.466;7.950;2022-12-07T19:11:45;4.20;99.90
1137;DHT22;557;48.466;7.950;2022-12-07T19:14:35;4.10;99.90
1137;DHT22;557;48.466;7.950;2022-12-07T19:17:23;4.10;99.90